Etusivu
METAR-TAF:

METAR-TAF

Lentoasemat :

Lontoo Biggin Hill, Englanti

Leveyspiiri: 51-19N, Pituuspiiri: 000-02E, korkeus merenpinnasta: 183 m

Tämänhetkinen sää

Tämä raportti tehtiin 1 tunti ja 16 minuuttia sitten, kello 20.20 UTC
Tuuli 9 kn etelästä/lounaasta
Lämpötila 13°C
Kosteus 94%
Ilmanpaine 1009 hPa
Näkyvyys 10 km tai enemmän
Muutamia pilviä 3500 ft:n korkeudessa

METAR: EGKB 182020Z 21009KT 9999 FEW035 13/12 Q1009

Aika: 22:36 (21:36 UTC)

Sääennuste

Tämä raportti tehtiin 3 tuntia ja 7 minuuttia sitten, kello 18.29 UTC
Ennuste voimassa 18. päivästä klo 18 UTC - 18. päivään klo 22 UTC
Tuuli 14 kn lounaasta
Näkyvyys 10 km tai enemmän
Hajanaisia pilviä 2500 ft:n korkeudessa
Ajoittain
18. päivästä klo 18 UTC - 18. päivään klo 20 UTC
Näkyvyys: 3000 m
kovia vesikuuroja

TAF: EGKB 181829Z 1818/1822 23014KT 9999 SCT025 TEMPO 1818/1820 3000 +SHRA

Säähavainnot ja -ennusteet yli 4000 lentoasemalta (METAR- ja TAF-raportit).

Käytössä olevat sääasemat on merkitty karttaan keltaisilla ja punaisilla pisteillä.

Aseta hiiri pisteen päälle nähdäksesi sääaseman nimen.

Klikkaa sitten nähdäksesi säähavainnot ja -ennusteet.

Kartan vaihtaminen: klikkaa mustalla rastilla varustettuja vihreitä pisteitä, niin voit zoomata sisään; viivalla varustettua vihreää pistettä, niin voit zoomata ulos tai vihreitä nuolia, niin pääset viereisille kartoille.


METAR-TAF: